sensor_id;sensor_type;location;lat;lon;timestamp;pressure;altitude;pressure_sealevel;temperature;humidity
49393;BME280;35268;42.642;23.308;2023-02-15T00:00:19;95079.94;;;0.71;71.54
49393;BME280;35268;42.642;23.308;2023-02-15T00:02:44;95083.66;;;0.64;71.57
49393;BME280;35268;42.642;23.308;2023-02-15T00:05:10;95082.31;;;0.73;71.36
49393;BME280;35268;42.642;23.308;2023-02-15T00:07:35;95091.63;;;0.69;71.48
49393;BME280;35268;42.642;23.308;2023-02-15T00:10:01;95093.69;;;0.67;71.32
49393;BME280;35268;42.642;23.308;2023-02-15T00:12:26;95092.47;;;0.69;71.34
49393;BME280;35268;42.642;23.308;2023-02-15T00:14:52;95101.72;;;0.72;71.46
49393;BME280;35268;42.642;23.308;2023-02-15T00:17:17;95100.91;;;0.71;71.59
49393;BME280;35268;42.642;23.308;2023-02-15T00:19:42;95111.03;;;0.68;71.80
49393;BME280;35268;42.642;23.308;2023-02-15T00:22:08;95106.97;;;0.72;72.22
49393;BME280;35268;42.642;23.308;2023-02-15T00:24:33;95118.34;;;0.66;72.16
49393;BME280;35268;42.642;23.308;2023-02-15T00:26:59;95110.16;;;0.74;72.22
49393;BME280;35268;42.642;23.308;2023-02-15T00:29:24;95106.97;;;0.72;71.93
49393;BME280;35268;42.642;23.308;2023-02-15T00:31:50;95111.41;;;0.71;71.89
49393;BME280;35268;42.642;23.308;2023-02-15T00:34:24;95111.31;;;0.78;71.74
49393;BME280;35268;42.642;23.308;2023-02-15T00:36:49;95107.66;;;0.79;71.79
49393;BME280;35268;42.642;23.308;2023-02-15T00:39:16;95109.28;;;0.80;71.72
49393;BME280;35268;42.642;23.308;2023-02-15T00:41:43;95108.81;;;0.83;71.28
49393;BME280;35268;42.642;23.308;2023-02-15T00:44:09;95110.88;;;0.81;71.36
49393;BME280;35268;42.642;23.308;2023-02-15T00:46:34;95112.84;;;0.86;71.20
49393;BME280;35268;42.642;23.308;2023-02-15T00:49:00;95102.56;;;0.84;71.03
49393;BME280;35268;42.642;23.308;2023-02-15T00:51:26;95107.66;;;0.79;71.45
49393;BME280;35268;42.642;23.308;2023-02-15T00:53:51;95101.19;;;0.82;71.91
49393;BME280;35268;42.642;23.308;2023-02-15T00:56:16;95098.78;;;0.80;71.56
49393;BME280;35268;42.642;23.308;2023-02-15T00:58:42;95097.53;;;0.83;71.64
49393;BME280;35268;42.642;23.308;2023-02-15T01:01:14;95101.63;;;0.78;71.67
49393;BME280;35268;42.642;23.308;2023-02-15T01:03:40;95106.50;;;0.75;72.05
49393;BME280;35268;42.642;23.308;2023-02-15T01:06:07;95115.78;;;0.77;71.84
49393;BME280;35268;42.642;23.308;2023-02-15T01:08:33;95109.78;;;0.70;72.15
49393;BME280;35268;42.642;23.308;2023-02-15T01:11:03;95107.47;;;0.62;72.49
49393;BME280;35268;42.642;23.308;2023-02-15T01:13:29;95093.97;;;0.58;72.53
49393;BME280;35268;42.642;23.308;2023-02-15T01:15:55;95094.13;;;0.64;72.55
49393;BME280;35268;42.642;23.308;2023-02-15T01:18:21;95097.78;;;0.63;72.62
49393;BME280;35268;42.642;23.308;2023-02-15T01:20:48;95089.97;;;0.56;72.91
49393;BME280;35268;42.642;23.308;2023-02-15T01:23:13;95099.44;;;0.57;72.74
49393;BME280;35268;42.642;23.308;2023-02-15T01:25:39;95096.97;;;0.62;72.77
49393;BME280;35268;42.642;23.308;2023-02-15T01:28:05;95090.78;;;0.56;72.92
49393;BME280;35268;42.642;23.308;2023-02-15T01:30:31;95088.16;;;0.56;73.30
49393;BME280;35268;42.642;23.308;2023-02-15T01:32:56;95096.81;;;0.57;73.21
49393;BME280;35268;42.642;23.308;2023-02-15T01:35:22;95089.03;;;0.50;73.35
49393;BME280;35268;42.642;23.308;2023-02-15T01:37:48;95087.00;;;0.52;73.23
49393;BME280;35268;42.642;23.308;2023-02-15T01:40:17;95080.59;;;0.48;73.56
49393;BME280;35268;42.642;23.308;2023-02-15T01:42:43;95088.91;;;0.45;73.69
49393;BME280;35268;42.642;23.308;2023-02-15T01:45:19;95074.63;;;0.41;74.06
49393;BME280;35268;42.642;23.308;2023-02-15T01:47:58;95077.84;;;0.43;73.76
49393;BME280;35268;42.642;23.308;2023-02-15T01:50:40;95078.47;;;0.38;73.88
49393;BME280;35268;42.642;23.308;2023-02-15T01:53:30;95069.22;;;0.36;74.40
49393;BME280;35268;42.642;23.308;2023-02-15T01:56:27;95073.22;;;0.38;74.40
49393;BME280;35268;42.642;23.308;2023-02-15T01:58:56;95069.81;;;0.38;74.33
49393;BME280;35268;42.642;23.308;2023-02-15T02:01:25;95072.59;;;0.43;74.35
49393;BME280;35268;42.642;23.308;2023-02-15T02:06:31;95064.13;;;0.41;74.34
49393;BME280;35268;42.642;23.308;2023-02-15T02:08:58;95066.50;;;0.43;74.10
49393;BME280;35268;42.642;23.308;2023-02-15T02:11:24;95057.44;;;0.45;73.89
49393;BME280;35268;42.642;23.308;2023-02-15T02:13:51;95062.22;;;0.48;74.02
49393;BME280;35268;42.642;23.308;2023-02-15T02:25:12;95071.25;;;0.52;74.09
49393;BME280;35268;42.642;23.308;2023-02-15T02:28:33;95083.13;;;0.55;73.59
49393;BME280;35268;42.642;23.308;2023-02-15T02:36:22;95080.88;;;0.58;73.38
49393;BME280;35268;42.642;23.308;2023-02-15T02:42:15;95081.81;;;0.64;72.82
49393;BME280;35268;42.642;23.308;2023-02-15T02:45:03;95077.81;;;0.62;73.07
49393;BME280;35268;42.642;23.308;2023-02-15T02:47:46;95086.03;;;0.65;73.16
49393;BME280;35268;42.642;23.308;2023-02-15T02:50:22;95083.34;;;0.72;72.85
49393;BME280;35268;42.642;23.308;2023-02-15T02:52:50;95083.34;;;0.72;72.90
49393;BME280;35268;42.642;23.308;2023-02-15T02:55:20;95081.50;;;0.72;72.72
49393;BME280;35268;42.642;23.308;2023-02-15T03:00:48;95083.47;;;0.77;72.87
49393;BME280;35268;42.642;23.308;2023-02-15T03:03:22;95091.69;;;0.80;72.73
49393;BME280;35268;42.642;23.308;2023-02-15T03:05:53;95090.34;;;0.78;72.37
49393;BME280;35268;42.642;23.308;2023-02-15T03:08:22;95093.53;;;0.80;72.58
49393;BME280;35268;42.642;23.308;2023-02-15T03:10:54;95093.97;;;0.77;72.33
49393;BME280;35268;42.642;23.308;2023-02-15T03:13:21;95107.34;;;0.87;72.02
49393;BME280;35268;42.642;23.308;2023-02-15T03:15:48;95107.81;;;0.84;72.34
49393;BME280;35268;42.642;23.308;2023-02-15T03:18:38;95103.56;;;0.83;72.85
49393;BME280;35268;42.642;23.308;2023-02-15T03:21:05;95102.78;;;0.83;72.77
49393;BME280;35268;42.642;23.308;2023-02-15T03:23:33;95093.53;;;0.80;72.64
49393;BME280;35268;42.642;23.308;2023-02-15T03:26:04;95107.03;;;0.84;72.59
49393;BME280;35268;42.642;23.308;2023-02-15T03:28:35;95104.47;;;0.77;72.94
49393;BME280;35268;42.642;23.308;2023-02-15T03:31:04;95112.78;;;0.74;72.95
49393;BME280;35268;42.642;23.308;2023-02-15T03:33:31;95098.88;;;0.73;72.99
49393;BME280;35268;42.642;23.308;2023-02-15T03:36:30;95105.63;;;0.81;72.83
49393;BME280;35268;42.642;23.308;2023-02-15T03:39:10;95106.88;;;0.78;72.88
49393;BME280;35268;42.642;23.308;2023-02-15T03:41:42;95109.72;;;0.77;72.67
49393;BME280;35268;42.642;23.308;2023-02-15T03:44:20;95100.38;;;0.81;73.00
49393;BME280;35268;42.642;23.308;2023-02-15T03:46:54;95088.88;;;0.82;73.02
49393;BME280;35268;42.642;23.308;2023-02-15T03:49:25;95100.75;;;0.85;72.78
49393;BME280;35268;42.642;23.308;2023-02-15T03:51:55;95105.78;;;0.86;72.87
49393;BME280;35268;42.642;23.308;2023-02-15T03:54:27;95105.63;;;0.81;72.89
49393;BME280;35268;42.642;23.308;2023-02-15T03:57:24;95104.63;;;0.82;73.05
49393;BME280;35268;42.642;23.308;2023-02-15T04:00:22;95107.66;;;0.79;73.31
49393;BME280;35268;42.642;23.308;2023-02-15T04:04:07;95113.28;;;0.83;73.17
49393;BME280;35268;42.642;23.308;2023-02-15T04:06:24;95109.41;;;0.85;72.93
49393;BME280;35268;42.642;23.308;2023-02-15T04:08:49;95102.56;;;0.84;73.28
49393;BME280;35268;42.642;23.308;2023-02-15T04:11:33;95107.25;;;0.82;73.57
49393;BME280;35268;42.642;23.308;2023-02-15T04:13:59;95124.81;;;0.82;73.66
49393;BME280;35268;42.642;23.308;2023-02-15T04:16:44;95112.56;;;0.75;74.11
49393;BME280;35268;42.642;23.308;2023-02-15T04:19:09;95133.91;;;0.79;74.41
49393;BME280;35268;42.642;23.308;2023-02-15T04:21:53;95121.25;;;0.76;74.49
49393;BME280;35268;42.642;23.308;2023-02-15T04:24:37;95123.50;;;0.72;74.89
49393;BME280;35268;42.642;23.308;2023-02-15T04:27:21;95125.91;;;0.74;74.96
49393;BME280;35268;42.642;23.308;2023-02-15T04:29:47;95142.66;;;0.73;74.88
49393;BME280;35268;42.642;23.308;2023-02-15T04:32:15;95138.44;;;0.72;74.90
49393;BME280;35268;42.642;23.308;2023-02-15T04:34:40;95137.19;;;0.74;75.12
49393;BME280;35268;42.642;23.308;2023-02-15T04:37:05;95136.84;;;0.71;75.29
49393;BME280;35268;42.642;23.308;2023-02-15T04:39:31;95147.34;;;0.71;75.42
49393;BME280;35268;42.642;23.308;2023-02-15T04:41:57;95144.72;;;0.71;75.42
49393;BME280;35268;42.642;23.308;2023-02-15T04:44:22;95146.31;;;0.72;75.32
49393;BME280;35268;42.642;23.308;2023-02-15T04:46:48;95139.47;;;0.71;75.11
49393;BME280;35268;42.642;23.308;2023-02-15T04:49:14;95144.66;;;0.77;75.02
49393;BME280;35268;42.642;23.308;2023-02-15T04:51:39;95143.03;;;0.76;74.70
49393;BME280;35268;42.642;23.308;2023-02-15T04:54:05;95145.88;;;0.75;74.99
49393;BME280;35268;42.642;23.308;2023-02-15T04:56:30;95134.78;;;0.73;74.93
49393;BME280;35268;42.642;23.308;2023-02-15T04:58:58;95146.13;;;0.73;75.07
49393;BME280;35268;42.642;23.308;2023-02-15T05:01:23;95138.66;;;0.70;74.88
49393;BME280;35268;42.642;23.308;2023-02-15T05:03:49;95141.66;;;0.74;75.07
49393;BME280;35268;42.642;23.308;2023-02-15T05:06:14;95166.00;;;0.81;74.62
49393;BME280;35268;42.642;23.308;2023-02-15T05:08:40;95157.78;;;0.77;74.34
49393;BME280;35268;42.642;23.308;2023-02-15T05:11:05;95156.63;;;0.73;74.88
49393;BME280;35268;42.642;23.308;2023-02-15T05:13:30;95166.53;;;0.71;74.89
49393;BME280;35268;42.642;23.308;2023-02-15T05:15:56;95155.00;;;0.72;74.88
49393;BME280;35268;42.642;23.308;2023-02-15T05:18:22;95163.06;;;0.71;74.96
49393;BME280;35268;42.642;23.308;2023-02-15T05:20:48;95163.44;;;0.74;74.95
49393;BME280;35268;42.642;23.308;2023-02-15T05:23:13;95160.63;;;0.76;74.59
49393;BME280;35268;42.642;23.308;2023-02-15T05:25:39;95163.81;;;0.78;74.58
49393;BME280;35268;42.642;23.308;2023-02-15T05:28:26;95171.09;;;0.76;74.73
49393;BME280;35268;42.642;23.308;2023-02-15T05:31:10;95178.78;;;0.77;74.79
49393;BME280;35268;42.642;23.308;2023-02-15T05:33:37;95179.13;;;0.81;74.64
49393;BME280;35268;42.642;23.308;2023-02-15T05:36:03;95174.22;;;0.85;74.46
49393;BME280;35268;42.642;23.308;2023-02-15T05:38:29;95191.03;;;0.84;74.43
49393;BME280;35268;42.642;23.308;2023-02-15T05:40:55;95189.19;;;0.84;74.35
49393;BME280;35268;42.642;23.308;2023-02-15T05:43:21;95197.19;;;0.89;74.20
49393;BME280;35268;42.642;23.308;2023-02-15T05:45:48;95187.72;;;0.88;73.96
49393;BME280;35268;42.642;23.308;2023-02-15T05:48:15;95194.56;;;0.89;74.20
49393;BME280;35268;42.642;23.308;2023-02-15T05:50:40;95195.16;;;0.91;74.12
49393;BME280;35268;42.642;23.308;2023-02-15T05:53:05;95194.34;;;0.91;74.25
49393;BME280;35268;42.642;23.308;2023-02-15T05:55:31;95182.25;;;0.90;74.23
49393;BME280;35268;42.642;23.308;2023-02-15T05:57:57;95189.56;;;0.88;74.14
49393;BME280;35268;42.642;23.308;2023-02-15T06:00:22;95183.44;;;0.94;74.09
49393;BME280;35268;42.642;23.308;2023-02-15T06:02:48;95191.72;;;0.91;74.41
49393;BME280;35268;42.642;23.308;2023-02-15T06:05:13;95177.81;;;0.90;74.18
49393;BME280;35268;42.642;23.308;2023-02-15T06:07:39;95199.97;;;0.94;74.18
49393;BME280;35268;42.642;23.308;2023-02-15T06:10:07;95189.47;;;0.94;74.35
49393;BME280;35268;42.642;23.308;2023-02-15T06:12:33;95185.69;;;0.90;73.88
49393;BME280;35268;42.642;23.308;2023-02-15T06:14:58;95185.81;;;0.95;73.86
49393;BME280;35268;42.642;23.308;2023-02-15T06:17:24;95190.19;;;1.02;73.45
49393;BME280;35268;42.642;23.308;2023-02-15T06:19:49;95198.31;;;1.00;73.50
49393;BME280;35268;42.642;23.308;2023-02-15T06:22:15;95194.22;;;1.04;73.32
49393;BME280;35268;42.642;23.308;2023-02-15T06:24:40;95196.28;;;1.14;73.04
49393;BME280;35268;42.642;23.308;2023-02-15T06:27:08;95194.84;;;1.18;72.79
49393;BME280;35268;42.642;23.308;2023-02-15T06:29:33;95197.25;;;1.19;72.65
49393;BME280;35268;42.642;23.308;2023-02-15T06:31:59;95195.13;;;1.10;72.79
49393;BME280;35268;42.642;23.308;2023-02-15T06:34:24;95199.16;;;1.12;72.30
49393;BME280;35268;42.642;23.308;2023-02-15T06:36:50;95190.97;;;1.20;72.43
49393;BME280;35268;42.642;23.308;2023-02-15T06:39:15;95193.31;;;1.29;72.16
49393;BME280;35268;42.642;23.308;2023-02-15T06:41:41;95191.75;;;1.39;71.42
49393;BME280;35268;42.642;23.308;2023-02-15T06:44:06;95195.97;;;1.40;71.15
49393;BME280;35268;42.642;23.308;2023-02-15T06:46:32;95199.78;;;1.45;70.80
49393;BME280;35268;42.642;23.308;2023-02-15T06:48:57;95204.47;;;1.54;70.56
49393;BME280;35268;42.642;23.308;2023-02-15T06:51:23;95200.47;;;1.52;70.03
49393;BME280;35268;42.642;23.308;2023-02-15T06:53:48;95222.22;;;1.59;70.07
49393;BME280;35268;42.642;23.308;2023-02-15T06:56:13;95195.03;;;1.65;69.51
49393;BME280;35268;42.642;23.308;2023-02-15T06:58:40;95202.13;;;1.76;69.34
49393;BME280;35268;42.642;23.308;2023-02-15T07:01:06;95198.03;;;1.80;69.21
49393;BME280;35268;42.642;23.308;2023-02-15T07:03:33;95206.28;;;1.84;68.25
49393;BME280;35268;42.642;23.308;2023-02-15T07:06:00;95196.19;;;1.81;68.49
49393;BME280;35268;42.642;23.308;2023-02-15T07:08:27;95180.56;;;1.86;68.46
49393;BME280;35268;42.642;23.308;2023-02-15T07:10:53;95197.84;;;1.94;67.98
49393;BME280;35268;42.642;23.308;2023-02-15T07:13:20;95200.59;;;1.99;67.92
49393;BME280;35268;42.642;23.308;2023-02-15T07:15:47;95191.13;;;2.10;67.79
49393;BME280;35268;42.642;23.308;2023-02-15T07:18:12;95188.97;;;2.18;67.02
49393;BME280;35268;42.642;23.308;2023-02-15T07:20:38;95176.59;;;2.07;66.86
49393;BME280;35268;42.642;23.308;2023-02-15T07:23:05;95189.09;;;2.12;67.48
49393;BME280;35268;42.642;23.308;2023-02-15T07:25:31;95195.94;;;2.13;67.35
49393;BME280;35268;42.642;23.308;2023-02-15T07:28:03;95205.75;;;2.17;67.00
49393;BME280;35268;42.642;23.308;2023-02-15T07:30:29;95206.00;;;2.04;66.76
49393;BME280;35268;42.642;23.308;2023-02-15T07:32:58;95195.94;;;2.13;66.80
49393;BME280;35268;42.642;23.308;2023-02-15T07:35:50;95203.13;;;2.17;66.64
49393;BME280;35268;42.642;23.308;2023-02-15T07:38:17;95194.09;;;2.02;66.94
49393;BME280;35268;42.642;23.308;2023-02-15T07:40:43;95192.03;;;2.15;67.08
49393;BME280;35268;42.642;23.308;2023-02-15T07:43:09;95212.41;;;2.20;66.27
49393;BME280;35268;42.642;23.308;2023-02-15T07:45:35;95183.72;;;2.18;66.19
49393;BME280;35268;42.642;23.308;2023-02-15T07:48:01;95186.44;;;2.24;66.37
49393;BME280;35268;42.642;23.308;2023-02-15T07:50:29;95181.19;;;2.35;66.13
49393;BME280;35268;42.642;23.308;2023-02-15T07:52:55;95187.25;;;2.36;65.55
49393;BME280;35268;42.642;23.308;2023-02-15T07:55:20;95186.22;;;2.37;65.66
49393;BME280;35268;42.642;23.308;2023-02-15T07:57:48;95174.31;;;2.46;65.19
49393;BME280;35268;42.642;23.308;2023-02-15T08:00:15;95174.88;;;2.48;64.74
49393;BME280;35268;42.642;23.308;2023-02-15T08:02:42;95176.03;;;2.52;65.62
49393;BME280;35268;42.642;23.308;2023-02-15T08:05:12;95185.53;;;2.53;65.52
49393;BME280;35268;42.642;23.308;2023-02-15T08:07:37;95180.84;;;2.55;65.45
49393;BME280;35268;42.642;23.308;2023-02-15T08:10:03;95190.81;;;2.65;65.32
49393;BME280;35268;42.642;23.308;2023-02-15T08:12:29;95189.09;;;2.47;64.96
49393;BME280;35268;42.642;23.308;2023-02-15T08:14:54;95203.38;;;2.51;65.20
49393;BME280;35268;42.642;23.308;2023-02-15T08:17:19;95192.06;;;2.51;65.10
49393;BME280;35268;42.642;23.308;2023-02-15T08:19:45;95220.31;;;2.55;65.59
49393;BME280;35268;42.642;23.308;2023-02-15T08:22:13;95198.47;;;2.67;65.44
49393;BME280;35268;42.642;23.308;2023-02-15T08:24:40;95197.78;;;2.83;66.32
49393;BME280;35268;42.642;23.308;2023-02-15T08:27:08;95203.59;;;2.85;64.44
49393;BME280;35268;42.642;23.308;2023-02-15T08:29:35;95203.34;;;2.87;64.37
49393;BME280;35268;42.642;23.308;2023-02-15T08:32:03;95203.69;;;2.90;64.83
49393;BME280;35268;42.642;23.308;2023-02-15T08:34:35;95200.72;;;2.98;63.92
49393;BME280;35268;42.642;23.308;2023-02-15T08:37:01;95200.06;;;2.91;64.40
49393;BME280;35268;42.642;23.308;2023-02-15T08:39:26;95198.28;;;3.09;64.26
49393;BME280;35268;42.642;23.308;2023-02-15T08:41:52;95196.78;;;3.13;63.36
49393;BME280;35268;42.642;23.308;2023-02-15T08:44:18;95208.38;;;3.12;63.13
49393;BME280;35268;42.642;23.308;2023-02-15T08:46:45;95209.72;;;3.14;63.49
49393;BME280;35268;42.642;23.308;2023-02-15T08:49:13;95215.56;;;3.16;62.60
49393;BME280;35268;42.642;23.308;2023-02-15T08:51:40;95209.94;;;3.25;62.86
49393;BME280;35268;42.642;23.308;2023-02-15T08:54:08;95198.03;;;3.22;62.21
49393;BME280;35268;42.642;23.308;2023-02-15T08:56:37;95197.69;;;3.18;62.31
49393;BME280;35268;42.642;23.308;2023-02-15T08:59:04;95207.75;;;3.21;62.20
49393;BME280;35268;42.642;23.308;2023-02-15T09:01:32;95201.47;;;3.11;62.63
49393;BME280;35268;42.642;23.308;2023-02-15T09:04:03;95214.28;;;3.19;62.74
49393;BME280;35268;42.642;23.308;2023-02-15T09:06:39;95194.16;;;3.13;62.52
49393;BME280;35268;42.642;23.308;2023-02-15T09:09:05;95207.53;;;3.23;62.69
49393;BME280;35268;42.642;23.308;2023-02-15T09:11:37;95213.16;;;3.15;62.46
49393;BME280;35268;42.642;23.308;2023-02-15T09:14:14;95210.06;;;3.18;63.24
49393;BME280;35268;42.642;23.308;2023-02-15T09:16:41;95210.34;;;3.33;63.01
49393;BME280;35268;42.642;23.308;2023-02-15T09:19:06;95207.16;;;3.31;63.52
49393;BME280;35268;42.642;23.308;2023-02-15T09:21:35;95201.44;;;3.34;63.14
49393;BME280;35268;42.642;23.308;2023-02-15T09:24:06;95201.97;;;3.48;62.95
49393;BME280;35268;42.642;23.308;2023-02-15T09:26:34;95216.38;;;3.46;62.04
49393;BME280;35268;42.642;23.308;2023-02-15T09:29:01;95204.47;;;3.43;62.55
49393;BME280;35268;42.642;23.308;2023-02-15T09:31:30;95208.47;;;3.46;63.13
49393;BME280;35268;42.642;23.308;2023-02-15T09:33:59;95216.94;;;3.48;62.49
49393;BME280;35268;42.642;23.308;2023-02-15T09:36:31;95215.50;;;3.40;63.00
49393;BME280;35268;42.642;23.308;2023-02-15T09:53:42;95201.84;;;3.72;59.98
49393;BME280;35268;42.642;23.308;2023-02-15T09:56:10;95202.44;;;3.62;60.02
49393;BME280;35268;42.642;23.308;2023-02-15T10:06:42;95195.38;;;3.79;60.30
49393;BME280;35268;42.642;23.308;2023-02-15T10:27:48;95182.38;;;4.07;58.96
49393;BME280;35268;42.642;23.308;2023-02-15T10:30:20;95182.38;;;4.07;58.75
49393;BME280;35268;42.642;23.308;2023-02-15T10:33:02;95169.19;;;3.90;59.38
49393;BME280;35268;42.642;23.308;2023-02-15T10:41:02;95167.66;;;3.77;59.73
49393;BME280;35268;42.642;23.308;2023-02-15T10:54:31;95144.94;;;3.93;59.70
49393;BME280;35268;42.642;23.308;2023-02-15T10:57:04;95153.13;;;3.91;59.62
49393;BME280;35268;42.642;23.308;2023-02-15T10:59:56;95170.22;;;3.89;59.45
49393;BME280;35268;42.642;23.308;2023-02-15T11:06:08;95154.88;;;3.86;61.02
49393;BME280;35268;42.642;23.308;2023-02-15T11:08:56;95164.13;;;3.88;60.35
49393;BME280;35268;42.642;23.308;2023-02-15T11:11:53;95149.09;;;3.72;60.85
49393;BME280;35268;42.642;23.308;2023-02-15T11:17:05;95154.38;;;3.72;61.42
49393;BME280;35268;42.642;23.308;2023-02-15T11:19:41;95141.97;;;3.72;61.17
49393;BME280;35268;42.642;23.308;2023-02-15T11:22:09;95145.28;;;3.79;61.50
49393;BME280;35268;42.642;23.308;2023-02-15T11:24:43;95146.56;;;3.94;60.26
49393;BME280;35268;42.642;23.308;2023-02-15T11:37:54;95130.91;;;4.04;60.78
49393;BME280;35268;42.642;23.308;2023-02-15T11:40:28;95127.13;;;4.00;59.70
49393;BME280;35268;42.642;23.308;2023-02-15T11:42:57;95138.75;;;3.99;59.49
49393;BME280;35268;42.642;23.308;2023-02-15T11:45:30;95135.72;;;4.07;59.73
49393;BME280;35268;42.642;23.308;2023-02-15T11:47:57;95140.03;;;4.13;59.67
49393;BME280;35268;42.642;23.308;2023-02-15T11:50:26;95123.84;;;4.27;58.95
49393;BME280;35268;42.642;23.308;2023-02-15T11:52:56;95118.38;;;4.33;58.80
49393;BME280;35268;42.642;23.308;2023-02-15T11:55:23;95115.19;;;4.31;58.06
49393;BME280;35268;42.642;23.308;2023-02-15T11:57:55;95116.00;;;4.32;57.96
49393;BME280;35268;42.642;23.308;2023-02-15T12:00:31;95107.53;;;4.30;57.67
49393;BME280;35268;42.642;23.308;2023-02-15T12:03:03;95105.38;;;4.27;58.63
49393;BME280;35268;42.642;23.308;2023-02-15T12:05:33;95102.31;;;4.35;58.88
49393;BME280;35268;42.642;23.308;2023-02-15T12:08:12;95094.88;;;4.32;58.29
49393;BME280;35268;42.642;23.308;2023-02-15T12:13:23;95099.19;;;4.38;57.62
49393;BME280;35268;42.642;23.308;2023-02-15T12:15:54;95095.38;;;4.29;57.88
49393;BME280;35268;42.642;23.308;2023-02-15T12:18:42;95084.81;;;4.29;57.95
49393;BME280;35268;42.642;23.308;2023-02-15T12:21:31;95089.44;;;4.38;58.53
49393;BME280;35268;42.642;23.308;2023-02-15T12:24:03;95095.63;;;4.49;57.76
49393;BME280;35268;42.642;23.308;2023-02-15T12:26:35;95081.47;;;4.55;57.47
49393;BME280;35268;42.642;23.308;2023-02-15T12:29:11;95082.13;;;4.68;57.35
49393;BME280;35268;42.642;23.308;2023-02-15T12:31:40;95091.16;;;4.72;57.46
49393;BME280;35268;42.642;23.308;2023-02-15T12:34:21;95084.22;;;4.66;57.07
49393;BME280;35268;42.642;23.308;2023-02-15T12:36:50;95082.69;;;4.70;57.40
49393;BME280;35268;42.642;23.308;2023-02-15T12:39:27;95078.22;;;4.70;57.44
49393;BME280;35268;42.642;23.308;2023-02-15T12:44:21;95071.38;;;4.96;56.99
49393;BME280;35268;42.642;23.308;2023-02-15T12:46:59;95059.56;;;5.04;56.32
49393;BME280;35268;42.642;23.308;2023-02-15T12:49:36;95060.97;;;5.12;55.70
49393;BME280;35268;42.642;23.308;2023-02-15T12:52:04;95057.88;;;5.20;56.41
49393;BME280;35268;42.642;23.308;2023-02-15T12:54:41;95062.16;;;5.26;55.86
49393;BME280;35268;42.642;23.308;2023-02-15T12:57:26;95053.53;;;5.36;55.94
49393;BME280;35268;42.642;23.308;2023-02-15T13:02:27;95052.44;;;5.32;55.26
49393;BME280;35268;42.642;23.308;2023-02-15T13:04:54;95056.94;;;5.31;55.24
49393;BME280;35268;42.642;23.308;2023-02-15T13:07:21;95052.31;;;5.43;55.10
49393;BME280;35268;42.642;23.308;2023-02-15T13:09:47;95057.06;;;5.47;55.26
49393;BME280;35268;42.642;23.308;2023-02-15T13:12:28;95050.31;;;5.61;55.08
49393;BME280;35268;42.642;23.308;2023-02-15T13:14:55;95042.69;;;5.70;54.51
49393;BME280;35268;42.642;23.308;2023-02-15T13:17:26;95046.72;;;5.72;54.28
49393;BME280;35268;42.642;23.308;2023-02-15T13:19:57;95047.88;;;5.87;54.06
49393;BME280;35268;42.642;23.308;2023-02-15T13:22:28;95057.41;;;5.88;53.40
49393;BME280;35268;42.642;23.308;2023-02-15T13:24:59;95048.91;;;5.86;53.82
49393;BME280;35268;42.642;23.308;2023-02-15T13:27:37;95032.63;;;5.99;54.18
49393;BME280;35268;42.642;23.308;2023-02-15T13:30:13;95043.78;;;6.01;53.25
49393;BME280;35268;42.642;23.308;2023-02-15T13:32:44;95049.00;;;5.96;53.46
49393;BME280;35268;42.642;23.308;2023-02-15T13:35:15;95045.88;;;5.99;53.47
49393;BME280;35268;42.642;23.308;2023-02-15T13:40:25;95054.81;;;5.93;53.31
49393;BME280;35268;42.642;23.308;2023-02-15T13:42:54;95052.19;;;5.98;53.46
49393;BME280;35268;42.642;23.308;2023-02-15T13:48:50;95041.19;;;6.11;53.50
49393;BME280;35268;42.642;23.308;2023-02-15T14:02:59;95066.03;;;6.10;53.97
49393;BME280;35268;42.642;23.308;2023-02-15T14:13:40;95064.53;;;5.87;54.06
49393;BME280;35268;42.642;23.308;2023-02-15T14:16:21;95082.53;;;5.90;54.46
49393;BME280;35268;42.642;23.308;2023-02-15T14:18:58;95082.28;;;5.87;54.50
49393;BME280;35268;42.642;23.308;2023-02-15T14:21:36;95090.59;;;5.68;54.78
49393;BME280;35268;42.642;23.308;2023-02-15T14:24:09;95087.41;;;5.66;54.94
49393;BME280;35268;42.642;23.308;2023-02-15T14:29:56;95084.13;;;5.54;55.43
49393;BME280;35268;42.642;23.308;2023-02-15T14:32:41;95092.00;;;5.49;55.57
49393;BME280;35268;42.642;23.308;2023-02-15T14:35:16;95093.06;;;5.48;55.97
49393;BME280;35268;42.642;23.308;2023-02-15T14:37:56;95086.31;;;5.62;55.32
49393;BME280;35268;42.642;23.308;2023-02-15T14:40:47;95089.31;;;5.43;55.91
49393;BME280;35268;42.642;23.308;2023-02-15T14:46:53;95081.31;;;5.11;56.71
49393;BME280;35268;42.642;23.308;2023-02-15T14:49:09;95088.16;;;5.07;57.12
49393;BME280;35268;42.642;23.308;2023-02-15T14:56:45;95085.34;;;4.70;58.35
49393;BME280;35268;42.642;23.308;2023-02-15T14:59:22;95087.84;;;4.59;58.46
49393;BME280;35268;42.642;23.308;2023-02-15T15:04:44;95088.69;;;4.43;59.19
49393;BME280;35268;42.642;23.308;2023-02-15T15:07:17;95090.72;;;4.36;59.51
49393;BME280;35268;42.642;23.308;2023-02-15T15:09:46;95082.72;;;4.31;59.81
49393;BME280;35268;42.642;23.308;2023-02-15T15:14:54;95073.09;;;4.19;60.12
49393;BME280;35268;42.642;23.308;2023-02-15T15:20:05;95075.16;;;4.00;60.53
49393;BME280;35268;42.642;23.308;2023-02-15T15:22:39;95089.66;;;3.98;60.94
49393;BME280;35268;42.642;23.308;2023-02-15T15:28:02;95088.69;;;3.87;61.00
49393;BME280;35268;42.642;23.308;2023-02-15T15:32:57;95097.25;;;3.77;61.66
49393;BME280;35268;42.642;23.308;2023-02-15T15:48:41;95110.63;;;3.13;63.91
49393;BME280;35268;42.642;23.308;2023-02-15T15:51:13;95112.97;;;3.10;64.15
49393;BME280;35268;42.642;23.308;2023-02-15T15:53:44;95106.94;;;2.97;64.19
49393;BME280;35268;42.642;23.308;2023-02-15T15:56:19;95107.53;;;2.88;64.81
49393;BME280;35268;42.642;23.308;2023-02-15T15:58:50;95104.78;;;2.83;65.12
49393;BME280;35268;42.642;23.308;2023-02-15T16:01:24;95106.78;;;2.75;65.34
49393;BME280;35268;42.642;23.308;2023-02-15T16:03:52;95109.84;;;2.72;65.48
49393;BME280;35268;42.642;23.308;2023-02-15T16:06:34;95107.13;;;2.67;65.84